sensor_id;sensor_type;location;lat;lon;timestamp;P1;durP1;ratioP1;P2;durP2;ratioP2
46607;SDS011;32330;51.936;7.184;2022-12-10T03:16:01;36.83;;;24.58;;
46607;SDS011;32330;51.936;7.184;2022-12-10T03:18:31;38.33;;;26.67;;
46607;SDS011;32330;51.936;7.184;2022-12-10T03:21:01;40.65;;;27.38;;
46607;SDS011;32330;51.936;7.184;2022-12-10T03:23:31;40.08;;;26.45;;
46607;SDS011;32330;51.936;7.184;2022-12-10T03:26:00;41.58;;;27.58;;
46607;SDS011;32330;51.936;7.184;2022-12-10T03:28:29;39.67;;;27.80;;
46607;SDS011;32330;51.936;7.184;2022-12-10T03:31:02;37.43;;;25.33;;
46607;SDS011;32330;51.936;7.184;2022-12-10T03:33:29;39.05;;;27.75;;
46607;SDS011;32330;51.936;7.184;2022-12-10T03:35:57;38.45;;;26.13;;
46607;SDS011;32330;51.936;7.184;2022-12-10T03:38:25;39.83;;;26.00;;
46607;SDS011;32330;51.936;7.184;2022-12-10T03:40:52;38.95;;;26.98;;
46607;SDS011;32330;51.936;7.184;2022-12-10T03:43:20;39.75;;;27.13;;
46607;SDS011;32330;51.936;7.184;2022-12-10T03:45:48;40.22;;;27.63;;
46607;SDS011;32330;51.936;7.184;2022-12-10T03:48:16;39.58;;;25.27;;
46607;SDS011;32330;51.936;7.184;2022-12-10T03:50:43;40.78;;;26.60;;
46607;SDS011;32330;51.936;7.184;2022-12-10T03:53:10;38.92;;;26.60;;
46607;SDS011;32330;51.936;7.184;2022-12-10T03:55:37;39.78;;;26.90;;
46607;SDS011;32330;51.936;7.184;2022-12-10T03:58:04;40.03;;;27.63;;
46607;SDS011;32330;51.936;7.184;2022-12-10T04:00:31;40.58;;;26.40;;
46607;SDS011;32330;51.936;7.184;2022-12-10T04:02:57;42.13;;;28.25;;
46607;SDS011;32330;51.936;7.184;2022-12-10T04:05:26;39.70;;;26.42;;
46607;SDS011;32330;51.936;7.184;2022-12-10T04:07:53;43.28;;;28.38;;
46607;SDS011;32330;51.936;7.184;2022-12-10T04:10:19;40.28;;;26.40;;
46607;SDS011;32330;51.936;7.184;2022-12-10T04:12:46;42.20;;;26.65;;
46607;SDS011;32330;51.936;7.184;2022-12-10T04:15:33;39.85;;;27.75;;
46607;SDS011;32330;51.936;7.184;2022-12-10T04:18:22;38.33;;;26.73;;
46607;SDS011;32330;51.936;7.184;2022-12-10T04:20:50;40.35;;;26.95;;
46607;SDS011;32330;51.936;7.184;2022-12-10T04:23:35;37.85;;;26.55;;
46607;SDS011;32330;51.936;7.184;2022-12-10T04:26:19;40.95;;;27.15;;
46607;SDS011;32330;51.936;7.184;2022-12-10T04:29:04;37.92;;;26.52;;
46607;SDS011;32330;51.936;7.184;2022-12-10T04:31:33;37.55;;;25.85;;
46607;SDS011;32330;51.936;7.184;2022-12-10T04:34:00;37.58;;;25.70;;
46607;SDS011;32330;51.936;7.184;2022-12-10T04:36:28;40.55;;;27.73;;
46607;SDS011;32330;51.936;7.184;2022-12-10T04:38:55;36.95;;;26.85;;
46607;SDS011;32330;51.936;7.184;2022-12-10T04:41:22;35.33;;;26.05;;
46607;SDS011;32330;51.936;7.184;2022-12-10T04:43:49;36.47;;;25.60;;
46607;SDS011;32330;51.936;7.184;2022-12-10T04:46:15;36.85;;;25.17;;
46607;SDS011;32330;51.936;7.184;2022-12-10T04:48:42;37.63;;;25.35;;
46607;SDS011;32330;51.936;7.184;2022-12-10T04:51:09;41.60;;;27.35;;
46607;SDS011;32330;51.936;7.184;2022-12-10T04:53:37;34.80;;;25.08;;
46607;SDS011;32330;51.936;7.184;2022-12-10T04:56:05;39.97;;;26.45;;
46607;SDS011;32330;51.936;7.184;2022-12-10T04:58:32;35.85;;;24.98;;
46607;SDS011;32330;51.936;7.184;2022-12-10T05:01:02;38.22;;;26.40;;
46607;SDS011;32330;51.936;7.184;2022-12-10T05:03:30;39.70;;;27.77;;
46607;SDS011;32330;51.936;7.184;2022-12-10T05:06:00;36.58;;;25.83;;
46607;SDS011;32330;51.936;7.184;2022-12-10T05:08:28;39.55;;;26.10;;
46607;SDS011;32330;51.936;7.184;2022-12-10T05:10:59;37.28;;;25.50;;
46607;SDS011;32330;51.936;7.184;2022-12-10T05:13:27;35.28;;;24.95;;
46607;SDS011;32330;51.936;7.184;2022-12-10T05:15:54;36.47;;;25.40;;
46607;SDS011;32330;51.936;7.184;2022-12-10T05:18:21;34.20;;;24.75;;
46607;SDS011;32330;51.936;7.184;2022-12-10T05:20:48;40.38;;;27.40;;
46607;SDS011;32330;51.936;7.184;2022-12-10T05:23:15;40.90;;;26.65;;
46607;SDS011;32330;51.936;7.184;2022-12-10T05:25:58;38.40;;;25.70;;
46607;SDS011;32330;51.936;7.184;2022-12-10T05:28:26;36.03;;;25.30;;
46607;SDS011;32330;51.936;7.184;2022-12-10T05:30:53;37.65;;;25.80;;
46607;SDS011;32330;51.936;7.184;2022-12-10T05:33:20;39.90;;;27.58;;
46607;SDS011;32330;51.936;7.184;2022-12-10T05:35:51;37.35;;;26.63;;
46607;SDS011;32330;51.936;7.184;2022-12-10T05:40:46;38.50;;;26.55;;
46607;SDS011;32330;51.936;7.184;2022-12-10T05:43:14;38.92;;;26.25;;
46607;SDS011;32330;51.936;7.184;2022-12-10T05:45:41;38.15;;;26.30;;
46607;SDS011;32330;51.936;7.184;2022-12-10T05:48:09;39.10;;;27.10;;
46607;SDS011;32330;51.936;7.184;2022-12-10T05:50:37;42.33;;;26.80;;
46607;SDS011;32330;51.936;7.184;2022-12-10T05:53:04;40.30;;;27.30;;
46607;SDS011;32330;51.936;7.184;2022-12-10T05:55:31;36.60;;;25.38;;
46607;SDS011;32330;51.936;7.184;2022-12-10T05:57:58;40.03;;;27.35;;
46607;SDS011;32330;51.936;7.184;2022-12-10T06:00:27;37.08;;;26.42;;
46607;SDS011;32330;51.936;7.184;2022-12-10T06:02:54;39.13;;;26.95;;
46607;SDS011;32330;51.936;7.184;2022-12-10T06:05:21;41.03;;;28.60;;
46607;SDS011;32330;51.936;7.184;2022-12-10T06:07:48;39.78;;;26.70;;
46607;SDS011;32330;51.936;7.184;2022-12-10T06:10:16;37.20;;;25.85;;
46607;SDS011;32330;51.936;7.184;2022-12-10T06:12:43;43.88;;;28.88;;
46607;SDS011;32330;51.936;7.184;2022-12-10T06:15:10;39.80;;;28.13;;
46607;SDS011;32330;51.936;7.184;2022-12-10T06:17:38;43.80;;;28.98;;
46607;SDS011;32330;51.936;7.184;2022-12-10T06:20:07;36.95;;;27.25;;
46607;SDS011;32330;51.936;7.184;2022-12-10T06:22:35;40.15;;;26.20;;
46607;SDS011;32330;51.936;7.184;2022-12-10T06:25:02;37.42;;;27.38;;
46607;SDS011;32330;51.936;7.184;2022-12-10T06:27:30;40.05;;;27.33;;
46607;SDS011;32330;51.936;7.184;2022-12-10T06:29:57;42.15;;;28.95;;
46607;SDS011;32330;51.936;7.184;2022-12-10T06:32:24;38.55;;;27.17;;
46607;SDS011;32330;51.936;7.184;2022-12-10T06:34:53;42.28;;;28.95;;
46607;SDS011;32330;51.936;7.184;2022-12-10T06:37:20;44.20;;;30.73;;
46607;SDS011;32330;51.936;7.184;2022-12-10T06:39:46;39.20;;;27.75;;
46607;SDS011;32330;51.936;7.184;2022-12-10T06:42:15;43.47;;;27.52;;
46607;SDS011;32330;51.936;7.184;2022-12-10T06:44:42;39.65;;;27.83;;
46607;SDS011;32330;51.936;7.184;2022-12-10T06:47:09;43.33;;;28.70;;
46607;SDS011;32330;51.936;7.184;2022-12-10T06:49:36;40.80;;;28.48;;
46607;SDS011;32330;51.936;7.184;2022-12-10T06:52:04;40.35;;;26.52;;
46607;SDS011;32330;51.936;7.184;2022-12-10T06:54:31;40.70;;;27.73;;
46607;SDS011;32330;51.936;7.184;2022-12-10T06:56:59;42.35;;;28.75;;
46607;SDS011;32330;51.936;7.184;2022-12-10T06:59:26;40.88;;;28.30;;
46607;SDS011;32330;51.936;7.184;2022-12-10T07:01:53;40.08;;;27.88;;
46607;SDS011;32330;51.936;7.184;2022-12-10T07:04:20;40.47;;;28.70;;
46607;SDS011;32330;51.936;7.184;2022-12-10T07:06:47;39.40;;;28.00;;
46607;SDS011;32330;51.936;7.184;2022-12-10T07:09:15;40.63;;;29.50;;
46607;SDS011;32330;51.936;7.184;2022-12-10T07:11:42;42.80;;;29.13;;
46607;SDS011;32330;51.936;7.184;2022-12-10T07:14:10;41.30;;;29.48;;
46607;SDS011;32330;51.936;7.184;2022-12-10T07:16:40;41.67;;;28.75;;
46607;SDS011;32330;51.936;7.184;2022-12-10T07:19:08;43.60;;;30.70;;
46607;SDS011;32330;51.936;7.184;2022-12-10T07:21:36;44.60;;;30.52;;
46607;SDS011;32330;51.936;7.184;2022-12-10T07:24:07;47.28;;;31.98;;
46607;SDS011;32330;51.936;7.184;2022-12-10T07:26:39;43.00;;;30.23;;
46607;SDS011;32330;51.936;7.184;2022-12-10T07:29:09;44.38;;;31.42;;
46607;SDS011;32330;51.936;7.184;2022-12-10T07:31:38;44.90;;;29.77;;
46607;SDS011;32330;51.936;7.184;2022-12-10T07:34:05;48.00;;;33.40;;
46607;SDS011;32330;51.936;7.184;2022-12-10T07:36:33;44.55;;;30.85;;
46607;SDS011;32330;51.936;7.184;2022-12-10T07:39:00;44.38;;;31.20;;
46607;SDS011;32330;51.936;7.184;2022-12-10T07:41:27;50.60;;;33.25;;
46607;SDS011;32330;51.936;7.184;2022-12-10T07:43:58;45.00;;;30.95;;
46607;SDS011;32330;51.936;7.184;2022-12-10T07:46:26;53.85;;;37.08;;
46607;SDS011;32330;51.936;7.184;2022-12-10T07:48:55;49.05;;;33.75;;
46607;SDS011;32330;51.936;7.184;2022-12-10T07:51:22;51.13;;;34.58;;
46607;SDS011;32330;51.936;7.184;2022-12-10T07:53:50;52.08;;;34.05;;
46607;SDS011;32330;51.936;7.184;2022-12-10T07:56:18;47.35;;;33.38;;
46607;SDS011;32330;51.936;7.184;2022-12-10T07:58:46;52.05;;;33.70;;
46607;SDS011;32330;51.936;7.184;2022-12-10T08:01:15;47.85;;;33.70;;
46607;SDS011;32330;51.936;7.184;2022-12-10T08:03:44;48.45;;;31.95;;
46607;SDS011;32330;51.936;7.184;2022-12-10T08:06:11;48.72;;;31.75;;
46607;SDS011;32330;51.936;7.184;2022-12-10T08:08:40;45.97;;;31.48;;
46607;SDS011;32330;51.936;7.184;2022-12-10T08:11:08;49.03;;;31.40;;
46607;SDS011;32330;51.936;7.184;2022-12-10T08:13:36;49.13;;;32.55;;
46607;SDS011;32330;51.936;7.184;2022-12-10T08:16:03;50.13;;;34.35;;
46607;SDS011;32330;51.936;7.184;2022-12-10T08:18:33;49.47;;;33.58;;
46607;SDS011;32330;51.936;7.184;2022-12-10T08:21:02;52.47;;;34.17;;
46607;SDS011;32330;51.936;7.184;2022-12-10T08:23:30;54.10;;;35.55;;
46607;SDS011;32330;51.936;7.184;2022-12-10T08:25:57;48.17;;;34.65;;
46607;SDS011;32330;51.936;7.184;2022-12-10T08:28:24;48.83;;;33.33;;
46607;SDS011;32330;51.936;7.184;2022-12-10T08:30:51;48.80;;;34.60;;
46607;SDS011;32330;51.936;7.184;2022-12-10T08:33:17;51.35;;;35.67;;
46607;SDS011;32330;51.936;7.184;2022-12-10T08:35:46;52.63;;;34.85;;
46607;SDS011;32330;51.936;7.184;2022-12-10T08:38:13;52.17;;;32.97;;
46607;SDS011;32330;51.936;7.184;2022-12-10T08:40:40;53.35;;;34.83;;
46607;SDS011;32330;51.936;7.184;2022-12-10T08:43:07;50.88;;;33.40;;
46607;SDS011;32330;51.936;7.184;2022-12-10T08:45:34;62.05;;;39.85;;
46607;SDS011;32330;51.936;7.184;2022-12-10T08:48:02;57.83;;;37.97;;
46607;SDS011;32330;51.936;7.184;2022-12-10T08:50:29;57.55;;;36.92;;
46607;SDS011;32330;51.936;7.184;2022-12-10T08:52:57;58.47;;;37.60;;
46607;SDS011;32330;51.936;7.184;2022-12-10T08:55:24;64.65;;;37.63;;
46607;SDS011;32330;51.936;7.184;2022-12-10T08:57:51;54.67;;;34.35;;
46607;SDS011;32330;51.936;7.184;2022-12-10T09:00:18;57.88;;;33.78;;
46607;SDS011;32330;51.936;7.184;2022-12-10T09:02:45;58.58;;;33.10;;
46607;SDS011;32330;51.936;7.184;2022-12-10T09:05:12;65.32;;;35.53;;
46607;SDS011;32330;51.936;7.184;2022-12-10T09:07:39;64.10;;;36.55;;
46607;SDS011;32330;51.936;7.184;2022-12-10T09:10:08;73.72;;;38.40;;
46607;SDS011;32330;51.936;7.184;2022-12-10T09:12:36;66.10;;;34.67;;
46607;SDS011;32330;51.936;7.184;2022-12-10T09:15:03;63.35;;;35.25;;
46607;SDS011;32330;51.936;7.184;2022-12-10T09:17:31;75.40;;;39.58;;
46607;SDS011;32330;51.936;7.184;2022-12-10T09:20:00;72.70;;;37.35;;
46607;SDS011;32330;51.936;7.184;2022-12-10T09:22:28;70.82;;;34.70;;
46607;SDS011;32330;51.936;7.184;2022-12-10T09:24:55;64.25;;;35.38;;
46607;SDS011;32330;51.936;7.184;2022-12-10T09:27:23;71.15;;;35.80;;
46607;SDS011;32330;51.936;7.184;2022-12-10T09:29:50;77.57;;;37.53;;
46607;SDS011;32330;51.936;7.184;2022-12-10T09:32:17;74.80;;;37.42;;
46607;SDS011;32330;51.936;7.184;2022-12-10T09:34:44;75.25;;;36.95;;
46607;SDS011;32330;51.936;7.184;2022-12-10T09:37:11;76.00;;;38.60;;
46607;SDS011;32330;51.936;7.184;2022-12-10T09:39:38;76.78;;;38.88;;
46607;SDS011;32330;51.936;7.184;2022-12-10T09:42:10;84.57;;;39.45;;
46607;SDS011;32330;51.936;7.184;2022-12-10T09:44:58;82.35;;;41.00;;
46607;SDS011;32330;51.936;7.184;2022-12-10T09:47:33;81.60;;;40.22;;
46607;SDS011;32330;51.936;7.184;2022-12-10T09:50:09;81.55;;;40.10;;
46607;SDS011;32330;51.936;7.184;2022-12-10T09:52:43;85.90;;;40.85;;
46607;SDS011;32330;51.936;7.184;2022-12-10T09:55:13;90.90;;;43.80;;
46607;SDS011;32330;51.936;7.184;2022-12-10T09:57:45;90.22;;;42.83;;
46607;SDS011;32330;51.936;7.184;2022-12-10T10:02:45;92.75;;;43.05;;
46607;SDS011;32330;51.936;7.184;2022-12-10T10:05:13;82.35;;;41.97;;
46607;SDS011;32330;51.936;7.184;2022-12-10T10:07:47;87.40;;;43.42;;
46607;SDS011;32330;51.936;7.184;2022-12-10T10:12:49;89.63;;;43.58;;
46607;SDS011;32330;51.936;7.184;2022-12-10T10:15:18;88.28;;;42.75;;
46607;SDS011;32330;51.936;7.184;2022-12-10T10:17:52;92.90;;;47.25;;
46607;SDS011;32330;51.936;7.184;2022-12-10T10:22:59;90.20;;;45.35;;
46607;SDS011;32330;51.936;7.184;2022-12-10T10:25:26;105.68;;;45.60;;
46607;SDS011;32330;51.936;7.184;2022-12-10T10:27:55;105.93;;;46.67;;
46607;SDS011;32330;51.936;7.184;2022-12-10T10:30:22;110.10;;;46.92;;
46607;SDS011;32330;51.936;7.184;2022-12-10T10:32:51;106.43;;;46.63;;
46607;SDS011;32330;51.936;7.184;2022-12-10T10:35:27;104.65;;;46.00;;
46607;SDS011;32330;51.936;7.184;2022-12-10T10:37:56;113.18;;;47.17;;
46607;SDS011;32330;51.936;7.184;2022-12-10T10:40:26;109.45;;;46.80;;
46607;SDS011;32330;51.936;7.184;2022-12-10T10:42:57;105.18;;;46.13;;
46607;SDS011;32330;51.936;7.184;2022-12-10T10:45:38;96.65;;;46.17;;
46607;SDS011;32330;51.936;7.184;2022-12-10T10:48:09;111.10;;;47.00;;
46607;SDS011;32330;51.936;7.184;2022-12-10T10:50:39;102.57;;;45.10;;
46607;SDS011;32330;51.936;7.184;2022-12-10T10:53:27;106.00;;;47.45;;
46607;SDS011;32330;51.936;7.184;2022-12-10T10:55:57;101.47;;;47.65;;
46607;SDS011;32330;51.936;7.184;2022-12-10T10:58:28;101.60;;;45.42;;
46607;SDS011;32330;51.936;7.184;2022-12-10T11:00:57;93.15;;;44.55;;
46607;SDS011;32330;51.936;7.184;2022-12-10T11:03:26;99.47;;;44.85;;
46607;SDS011;32330;51.936;7.184;2022-12-10T11:05:54;97.13;;;43.88;;
46607;SDS011;32330;51.936;7.184;2022-12-10T11:08:24;107.28;;;46.85;;
46607;SDS011;32330;51.936;7.184;2022-12-10T11:10:56;101.72;;;44.55;;
46607;SDS011;32330;51.936;7.184;2022-12-10T11:13:29;101.85;;;45.85;;
46607;SDS011;32330;51.936;7.184;2022-12-10T11:15:59;100.60;;;45.25;;
46607;SDS011;32330;51.936;7.184;2022-12-10T11:18:32;101.75;;;44.55;;
46607;SDS011;32330;51.936;7.184;2022-12-10T11:21:03;116.18;;;49.22;;
46607;SDS011;32330;51.936;7.184;2022-12-10T11:23:37;107.40;;;46.27;;
46607;SDS011;32330;51.936;7.184;2022-12-10T11:26:09;108.50;;;46.28;;
46607;SDS011;32330;51.936;7.184;2022-12-10T11:29:00;106.10;;;47.42;;
46607;SDS011;32330;51.936;7.184;2022-12-10T11:31:44;104.75;;;45.45;;
46607;SDS011;32330;51.936;7.184;2022-12-10T11:34:24;111.22;;;45.90;;
46607;SDS011;32330;51.936;7.184;2022-12-10T11:37:01;107.55;;;46.10;;
46607;SDS011;32330;51.936;7.184;2022-12-10T11:42:34;109.85;;;48.45;;
46607;SDS011;32330;51.936;7.184;2022-12-10T11:45:13;113.38;;;49.22;;
46607;SDS011;32330;51.936;7.184;2022-12-10T11:47:47;113.68;;;48.30;;
46607;SDS011;32330;51.936;7.184;2022-12-10T11:50:24;102.93;;;45.92;;
46607;SDS011;32330;51.936;7.184;2022-12-10T11:55:35;114.85;;;46.42;;
46607;SDS011;32330;51.936;7.184;2022-12-10T11:58:16;116.90;;;50.83;;
46607;SDS011;32330;51.936;7.184;2022-12-10T12:00:56;96.00;;;43.78;;
46607;SDS011;32330;51.936;7.184;2022-12-10T12:06:45;120.18;;;49.42;;
46607;SDS011;32330;51.936;7.184;2022-12-10T12:09:23;107.35;;;47.38;;
46607;SDS011;32330;51.936;7.184;2022-12-10T12:12:02;94.70;;;45.00;;
46607;SDS011;32330;51.936;7.184;2022-12-10T12:14:39;99.63;;;44.55;;
46607;SDS011;32330;51.936;7.184;2022-12-10T12:17:11;103.00;;;45.78;;
46607;SDS011;32330;51.936;7.184;2022-12-10T12:19:43;104.55;;;45.08;;
46607;SDS011;32330;51.936;7.184;2022-12-10T12:22:13;106.75;;;48.90;;
46607;SDS011;32330;51.936;7.184;2022-12-10T12:24:46;105.15;;;47.38;;
46607;SDS011;32330;51.936;7.184;2022-12-10T12:27:16;111.20;;;50.28;;
46607;SDS011;32330;51.936;7.184;2022-12-10T12:29:51;115.18;;;54.45;;
46607;SDS011;32330;51.936;7.184;2022-12-10T12:32:29;110.65;;;48.60;;
46607;SDS011;32330;51.936;7.184;2022-12-10T12:35:02;106.90;;;48.22;;
46607;SDS011;32330;51.936;7.184;2022-12-10T12:37:37;109.07;;;48.63;;
46607;SDS011;32330;51.936;7.184;2022-12-10T12:40:10;112.15;;;49.28;;
46607;SDS011;32330;51.936;7.184;2022-12-10T12:42:42;126.80;;;52.65;;
46607;SDS011;32330;51.936;7.184;2022-12-10T12:45:13;123.65;;;53.33;;
46607;SDS011;32330;51.936;7.184;2022-12-10T12:47:45;120.05;;;51.53;;
46607;SDS011;32330;51.936;7.184;2022-12-10T12:50:23;119.13;;;54.53;;
46607;SDS011;32330;51.936;7.184;2022-12-10T12:52:54;108.72;;;48.50;;
46607;SDS011;32330;51.936;7.184;2022-12-10T12:55:31;108.75;;;47.85;;
46607;SDS011;32330;51.936;7.184;2022-12-10T12:58:06;114.13;;;52.00;;
46607;SDS011;32330;51.936;7.184;2022-12-10T13:00:42;116.97;;;51.60;;
46607;SDS011;32330;51.936;7.184;2022-12-10T13:03:19;123.25;;;53.10;;
46607;SDS011;32330;51.936;7.184;2022-12-10T13:06:11;125.28;;;54.03;;
46607;SDS011;32330;51.936;7.184;2022-12-10T13:08:43;123.07;;;55.63;;
46607;SDS011;32330;51.936;7.184;2022-12-10T13:11:16;115.90;;;52.97;;
46607;SDS011;32330;51.936;7.184;2022-12-10T13:17:00;109.75;;;49.95;;
46607;SDS011;32330;51.936;7.184;2022-12-10T13:19:44;124.95;;;58.30;;
46607;SDS011;32330;51.936;7.184;2022-12-10T13:22:11;114.65;;;52.88;;
46607;SDS011;32330;51.936;7.184;2022-12-10T13:25:02;129.52;;;58.45;;
46607;SDS011;32330;51.936;7.184;2022-12-10T13:27:36;128.30;;;58.60;;
46607;SDS011;32330;51.936;7.184;2022-12-10T13:30:04;124.50;;;58.17;;
46607;SDS011;32330;51.936;7.184;2022-12-10T13:32:47;112.78;;;49.55;;
46607;SDS011;32330;51.936;7.184;2022-12-10T13:35:26;104.95;;;50.00;;
46607;SDS011;32330;51.936;7.184;2022-12-10T13:37:57;103.07;;;49.00;;
46607;SDS011;32330;51.936;7.184;2022-12-10T13:40:38;100.05;;;47.53;;
46607;SDS011;32330;51.936;7.184;2022-12-10T13:43:25;97.90;;;46.80;;
46607;SDS011;32330;51.936;7.184;2022-12-10T13:46:22;100.18;;;46.60;;
46607;SDS011;32330;51.936;7.184;2022-12-10T13:48:52;107.35;;;50.15;;
46607;SDS011;32330;51.936;7.184;2022-12-10T13:54:18;102.20;;;48.17;;
46607;SDS011;32330;51.936;7.184;2022-12-10T13:56:55;102.88;;;50.45;;
46607;SDS011;32330;51.936;7.184;2022-12-10T13:59:33;101.70;;;47.58;;
46607;SDS011;32330;51.936;7.184;2022-12-10T14:02:21;96.07;;;46.92;;
46607;SDS011;32330;51.936;7.184;2022-12-10T14:08:01;98.57;;;46.85;;
46607;SDS011;32330;51.936;7.184;2022-12-10T14:10:31;98.30;;;46.28;;
46607;SDS011;32330;51.936;7.184;2022-12-10T14:12:59;91.78;;;46.55;;
46607;SDS011;32330;51.936;7.184;2022-12-10T14:15:29;96.78;;;48.03;;
46607;SDS011;32330;51.936;7.184;2022-12-10T14:17:59;105.03;;;50.42;;
46607;SDS011;32330;51.936;7.184;2022-12-10T14:20:28;100.68;;;50.17;;
46607;SDS011;32330;51.936;7.184;2022-12-10T14:22:57;102.45;;;50.15;;
46607;SDS011;32330;51.936;7.184;2022-12-10T14:25:50;114.30;;;51.28;;
46607;SDS011;32330;51.936;7.184;2022-12-10T14:28:20;108.85;;;52.22;;
46607;SDS011;32330;51.936;7.184;2022-12-10T14:30:48;113.35;;;54.28;;
46607;SDS011;32330;51.936;7.184;2022-12-10T14:33:16;107.85;;;52.90;;
46607;SDS011;32330;51.936;7.184;2022-12-10T14:39:47;115.38;;;55.22;;
46607;SDS011;32330;51.936;7.184;2022-12-10T14:42:14;97.38;;;51.97;;
46607;SDS011;32330;51.936;7.184;2022-12-10T14:44:43;112.00;;;54.63;;
46607;SDS011;32330;51.936;7.184;2022-12-10T14:47:13;119.47;;;57.42;;
46607;SDS011;32330;51.936;7.184;2022-12-10T14:49:42;112.32;;;51.67;;
46607;SDS011;32330;51.936;7.184;2022-12-10T14:52:14;99.93;;;50.40;;
46607;SDS011;32330;51.936;7.184;2022-12-10T14:54:43;101.35;;;50.63;;
46607;SDS011;32330;51.936;7.184;2022-12-10T14:57:14;91.57;;;44.42;;
46607;SDS011;32330;51.936;7.184;2022-12-10T14:59:45;99.10;;;47.00;;
46607;SDS011;32330;51.936;7.184;2022-12-10T15:02:17;103.60;;;50.70;;
46607;SDS011;32330;51.936;7.184;2022-12-10T15:04:48;105.38;;;51.47;;
46607;SDS011;32330;51.936;7.184;2022-12-10T15:07:17;103.93;;;52.05;;
46607;SDS011;32330;51.936;7.184;2022-12-10T15:09:47;109.27;;;53.53;;
46607;SDS011;32330;51.936;7.184;2022-12-10T15:12:21;91.80;;;46.40;;
46607;SDS011;32330;51.936;7.184;2022-12-10T15:14:57;93.75;;;44.05;;
46607;SDS011;32330;51.936;7.184;2022-12-10T15:17:33;89.13;;;42.88;;
46607;SDS011;32330;51.936;7.184;2022-12-10T15:20:02;85.72;;;40.88;;
46607;SDS011;32330;51.936;7.184;2022-12-10T15:22:35;85.22;;;39.95;;
46607;SDS011;32330;51.936;7.184;2022-12-10T15:25:10;85.18;;;40.53;;
46607;SDS011;32330;51.936;7.184;2022-12-10T15:27:52;87.40;;;43.65;;
46607;SDS011;32330;51.936;7.184;2022-12-10T15:30:21;84.32;;;41.20;;
46607;SDS011;32330;51.936;7.184;2022-12-10T15:32:49;87.25;;;43.80;;
46607;SDS011;32330;51.936;7.184;2022-12-10T15:35:16;90.43;;;41.67;;
46607;SDS011;32330;51.936;7.184;2022-12-10T15:37:43;95.65;;;45.60;;
46607;SDS011;32330;51.936;7.184;2022-12-10T15:40:22;96.75;;;45.30;;
46607;SDS011;32330;51.936;7.184;2022-12-10T15:42:50;102.55;;;46.78;;
46607;SDS011;32330;51.936;7.184;2022-12-10T15:45:20;94.70;;;47.58;;
46607;SDS011;32330;51.936;7.184;2022-12-10T15:47:51;92.80;;;44.50;;
46607;SDS011;32330;51.936;7.184;2022-12-10T15:50:18;89.03;;;43.90;;
46607;SDS011;32330;51.936;7.184;2022-12-10T15:52:45;74.60;;;36.17;;
46607;SDS011;32330;51.936;7.184;2022-12-10T15:55:13;73.60;;;36.65;;
46607;SDS011;32330;51.936;7.184;2022-12-10T15:57:41;69.82;;;36.42;;
46607;SDS011;32330;51.936;7.184;2022-12-10T16:00:14;73.80;;;38.38;;
46607;SDS011;32330;51.936;7.184;2022-12-10T16:02:46;80.72;;;36.13;;
46607;SDS011;32330;51.936;7.184;2022-12-10T16:05:16;75.38;;;38.33;;
46607;SDS011;32330;51.936;7.184;2022-12-10T16:07:45;76.55;;;41.83;;
46607;SDS011;32330;51.936;7.184;2022-12-10T16:10:14;89.22;;;41.85;;
46607;SDS011;32330;51.936;7.184;2022-12-10T16:12:44;78.50;;;36.45;;
46607;SDS011;32330;51.936;7.184;2022-12-10T16:15:15;84.95;;;44.25;;
46607;SDS011;32330;51.936;7.184;2022-12-10T16:17:47;78.05;;;40.30;;
46607;SDS011;32330;51.936;7.184;2022-12-10T16:20:17;70.55;;;35.47;;
46607;SDS011;32330;51.936;7.184;2022-12-10T16:22:47;75.13;;;37.72;;
46607;SDS011;32330;51.936;7.184;2022-12-10T16:25:15;70.45;;;40.78;;
46607;SDS011;32330;51.936;7.184;2022-12-10T16:27:42;74.53;;;36.85;;
46607;SDS011;32330;51.936;7.184;2022-12-10T16:30:14;75.32;;;38.13;;
46607;SDS011;32330;51.936;7.184;2022-12-10T16:32:44;70.70;;;34.88;;
46607;SDS011;32330;51.936;7.184;2022-12-10T16:35:13;78.22;;;38.35;;
46607;SDS011;32330;51.936;7.184;2022-12-10T16:37:41;74.70;;;37.38;;
46607;SDS011;32330;51.936;7.184;2022-12-10T16:40:10;72.50;;;36.78;;
46607;SDS011;32330;51.936;7.184;2022-12-10T16:42:39;72.40;;;37.72;;
46607;SDS011;32330;51.936;7.184;2022-12-10T16:45:12;84.47;;;44.60;;
46607;SDS011;32330;51.936;7.184;2022-12-10T16:47:40;81.25;;;40.90;;
46607;SDS011;32330;51.936;7.184;2022-12-10T16:50:07;75.72;;;37.15;;
46607;SDS011;32330;51.936;7.184;2022-12-10T16:52:36;77.05;;;40.47;;
46607;SDS011;32330;51.936;7.184;2022-12-10T16:55:03;79.20;;;39.90;;
46607;SDS011;32330;51.936;7.184;2022-12-10T16:57:31;79.43;;;40.92;;
46607;SDS011;32330;51.936;7.184;2022-12-10T16:59:58;81.00;;;40.58;;
46607;SDS011;32330;51.936;7.184;2022-12-10T17:02:25;81.30;;;41.85;;
46607;SDS011;32330;51.936;7.184;2022-12-10T17:04:52;78.82;;;41.40;;
46607;SDS011;32330;51.936;7.184;2022-12-10T17:07:19;86.10;;;42.70;;
46607;SDS011;32330;51.936;7.184;2022-12-10T17:09:47;78.93;;;39.05;;
46607;SDS011;32330;51.936;7.184;2022-12-10T17:12:14;91.05;;;47.58;;
46607;SDS011;32330;51.936;7.184;2022-12-10T17:14:42;84.72;;;44.80;;
46607;SDS011;32330;51.936;7.184;2022-12-10T17:17:14;81.07;;;42.13;;
46607;SDS011;32330;51.936;7.184;2022-12-10T17:19:42;73.97;;;40.55;;
46607;SDS011;32330;51.936;7.184;2022-12-10T17:22:09;82.75;;;41.67;;
46607;SDS011;32330;51.936;7.184;2022-12-10T17:24:38;77.72;;;37.25;;
46607;SDS011;32330;51.936;7.184;2022-12-10T17:27:07;83.10;;;42.00;;
46607;SDS011;32330;51.936;7.184;2022-12-10T17:29:39;91.15;;;45.15;;
46607;SDS011;32330;51.936;7.184;2022-12-10T17:32:12;79.35;;;42.22;;
46607;SDS011;32330;51.936;7.184;2022-12-10T17:34:39;84.88;;;44.47;;
46607;SDS011;32330;51.936;7.184;2022-12-10T17:37:08;69.75;;;39.22;;
46607;SDS011;32330;51.936;7.184;2022-12-10T17:39:36;73.32;;;39.45;;
46607;SDS011;32330;51.936;7.184;2022-12-10T17:42:04;80.32;;;41.03;;
46607;SDS011;32330;51.936;7.184;2022-12-10T17:44:34;92.75;;;50.05;;
46607;SDS011;32330;51.936;7.184;2022-12-10T17:47:01;82.97;;;42.35;;
46607;SDS011;32330;51.936;7.184;2022-12-10T17:49:28;80.25;;;41.17;;
46607;SDS011;32330;51.936;7.184;2022-12-10T17:51:56;80.13;;;40.97;;
46607;SDS011;32330;51.936;7.184;2022-12-10T17:54:24;78.32;;;39.30;;
46607;SDS011;32330;51.936;7.184;2022-12-10T17:56:51;77.97;;;39.53;;
46607;SDS011;32330;51.936;7.184;2022-12-10T17:59:18;73.70;;;38.05;;
46607;SDS011;32330;51.936;7.184;2022-12-10T18:01:46;80.43;;;38.72;;
46607;SDS011;32330;51.936;7.184;2022-12-10T18:04:14;80.07;;;42.67;;
46607;SDS011;32330;51.936;7.184;2022-12-10T18:06:41;79.80;;;38.75;;
46607;SDS011;32330;51.936;7.184;2022-12-10T18:09:08;79.82;;;38.22;;
46607;SDS011;32330;51.936;7.184;2022-12-10T18:11:36;73.03;;;38.50;;
46607;SDS011;32330;51.936;7.184;2022-12-10T18:14:05;76.70;;;40.08;;
46607;SDS011;32330;51.936;7.184;2022-12-10T18:16:33;86.07;;;44.42;;
46607;SDS011;32330;51.936;7.184;2022-12-10T18:19:03;82.93;;;41.78;;
46607;SDS011;32330;51.936;7.184;2022-12-10T18:21:33;77.15;;;39.50;;
46607;SDS011;32330;51.936;7.184;2022-12-10T18:24:00;78.30;;;40.47;;